createdAt,value
2017-06-21T00:00:16.479Z,89.36
2017-06-21T00:01:25.379Z,89.54
2017-06-21T00:02:34.278Z,89.64
2017-06-21T00:03:42.865Z,89.74
2017-06-21T00:04:51.758Z,90.6
2017-06-21T00:06:00.656Z,90.12
2017-06-21T00:07:09.877Z,90.41
2017-06-21T00:08:18.776Z,90.7
2017-06-21T00:09:27.679Z,90.89
2017-06-21T00:10:37.211Z,90.99
2017-06-21T00:11:46.737Z,91.28
2017-06-21T00:12:55.949Z,91.33
2017-06-21T00:14:04.849Z,91.13
2017-06-21T00:15:13.429Z,91.33
2017-06-21T00:16:22.010Z,91.71
2017-06-21T00:17:30.589Z,91.23
2017-06-21T00:18:39.169Z,91.52
2017-06-21T00:19:48.066Z,91.9
2017-06-21T00:20:56.959Z,91.42
2017-06-21T00:22:05.541Z,91.9
2017-06-21T00:23:14.441Z,92.29
2017-06-21T00:24:23.023Z,92
2017-06-21T00:25:32.244Z,92.19
2017-06-21T00:26:40.828Z,92.38
2017-06-21T00:27:49.407Z,92
2017-06-21T00:28:58.312Z,92.1
2017-06-21T00:30:06.889Z,92.48
2017-06-21T00:31:16.101Z,92.48
2017-06-21T00:32:25.002Z,92.67
2017-06-21T00:33:33.585Z,92.57
2017-06-21T00:34:42.162Z,92.57
2017-06-21T00:35:50.739Z,92.67
2017-06-21T00:36:59.637Z,92.57
2017-06-21T00:38:08.214Z,92.57
2017-06-21T00:39:17.104Z,92.77
2017-06-21T00:40:25.688Z,92.67
2017-06-21T00:41:34.899Z,92.77
2017-06-21T00:42:43.478Z,91.81
2017-06-21T00:43:52.688Z,92.38
2017-06-21T00:45:01.898Z,92.19
2017-06-21T00:46:11.112Z,92.1
2017-06-21T00:47:20.007Z,92.67
2017-06-21T00:48:28.588Z,92.91
2017-06-21T00:49:37.167Z,92.05
2017-06-21T00:50:46.060Z,92.29
2017-06-21T00:51:54.637Z,92.53
2017-06-21T00:53:03.220Z,92.72
2017-06-21T00:54:12.751Z,92.43
2017-06-21T00:55:21.654Z,92.91
2017-06-21T00:56:30.549Z,93.1
2017-06-21T00:57:39.128Z,93.49
2017-06-21T00:58:47.708Z,93.49
2017-06-21T00:59:56.605Z,93.59
2017-06-21T01:01:05.183Z,93.39
2017-06-21T01:02:14.082Z,93.49
2017-06-21T01:03:22.663Z,93.2
2017-06-21T01:04:32.194Z,93.01
2017-06-21T01:05:40.771Z,93.01
2017-06-21T01:06:49.350Z,94.16
2017-06-21T01:07:58.243Z,94.35
2017-06-21T01:09:06.820Z,93.82
2017-06-21T01:10:16.032Z,93.92
2017-06-21T01:11:24.929Z,94.35
2017-06-21T01:12:33.509Z,93.73
2017-06-21T01:13:42.342Z,94.02
2017-06-21T01:14:50.920Z,94.02
2017-06-21T01:16:00.134Z,94.02
2017-06-21T01:17:09.669Z,94.69
2017-06-21T01:18:18.249Z,94.49
2017-06-21T01:19:26.829Z,94.12
2017-06-21T01:20:35.722Z,94.12
2017-06-21T01:21:44.295Z,94.12
2017-06-21T01:22:53.198Z,94.4
2017-06-21T01:24:02.465Z,94.02
2017-06-21T01:25:11.041Z,94.49
2017-06-21T01:26:19.936Z,94.49
2017-06-21T01:27:28.830Z,94.49
2017-06-21T01:28:37.404Z,94.02
2017-06-21T01:29:46.314Z,94.12
2017-06-21T01:30:54.897Z,94.12
2017-06-21T01:32:04.115Z,94.21
2017-06-21T01:33:13.012Z,93.54
2017-06-21T01:34:22.223Z,93.25
2017-06-21T01:35:31.113Z,93.82
2017-06-21T01:36:39.693Z,94.21
2017-06-21T01:37:48.272Z,93.73
2017-06-21T01:38:56.846Z,93.54
2017-06-21T01:40:05.743Z,94.12
2017-06-21T01:41:14.951Z,93.63
2017-06-21T01:42:23.844Z,94.4
2017-06-21T01:43:32.418Z,94.21
2017-06-21T01:44:41.308Z,94.21
2017-06-21T01:45:49.885Z,94.84
2017-06-21T01:46:58.462Z,94.84
2017-06-21T01:48:07.038Z,94.84
2017-06-21T01:49:15.931Z,94.64
2017-06-21T01:50:24.515Z,94.74
2017-06-21T01:51:33.728Z,95.6
2017-06-21T01:52:42.303Z,95.12
2017-06-21T01:53:51.196Z,95.21
2017-06-21T01:55:00.092Z,95.51
2017-06-21T01:56:09.630Z,95.6
2017-06-21T01:57:18.526Z,95.51
2017-06-21T01:58:27.417Z,95.7
2017-06-21T01:59:36.313Z,95.51
2017-06-21T02:00:45.840Z,95.98
2017-06-21T02:01:54.733Z,95.79
2017-06-21T02:03:03.627Z,96.08
2017-06-21T02:04:12.522Z,96.37
2017-06-21T02:05:22.062Z,96.66
2017-06-21T02:06:30.963Z,96.66
2017-06-21T02:07:39.673Z,96.85
2017-06-21T02:08:48.570Z,97.09
2017-06-21T02:09:57.145Z,97.38
2017-06-21T02:11:05.723Z,97.18
2017-06-21T02:12:14.302Z,97.56
2017-06-21T02:13:22.876Z,97.76
2017-06-21T02:14:31.775Z,97.56
2017-06-21T02:15:40.353Z,98.14
2017-06-21T02:16:49.886Z,98.52
2017-06-21T02:17:58.471Z,97.85
2017-06-21T02:19:08.016Z,98.43
2017-06-21T02:20:16.597Z,98.43
2017-06-21T02:21:25.807Z,98.62
2017-06-21T02:22:34.385Z,98.91
2017-06-21T02:23:42.965Z,99.29
2017-06-21T02:24:51.569Z,99.29
2017-06-21T02:26:00.144Z,99.19
2017-06-21T02:27:08.728Z,99.01
2017-06-21T02:28:17.621Z,98.43
2017-06-21T02:29:26.515Z,98.33
2017-06-21T02:30:35.412Z,98.62
2017-06-21T02:31:44.306Z,98.57
2017-06-21T02:32:53.199Z,98.62
2017-06-21T02:34:02.092Z,98.1
2017-06-21T02:35:10.669Z,98.14
2017-06-21T02:36:19.245Z,98.43
2017-06-21T02:37:27.823Z,98.14
2017-06-21T02:38:36.401Z,97.76
2017-06-21T02:39:45.612Z,98
2017-06-21T02:40:54.222Z,97.95
2017-06-21T02:42:02.803Z,97.52
2017-06-21T02:43:12.331Z,97.33
2017-06-21T02:44:21.226Z,97.04
2017-06-21T02:45:30.121Z,97.14
2017-06-21T02:46:38.701Z,97.04
2017-06-21T02:47:47.279Z,97.14
2017-06-21T02:48:55.864Z,98
2017-06-21T02:50:05.393Z,98.28
2017-06-21T02:51:14.287Z,98.47
2017-06-21T02:52:22.870Z,98
2017-06-21T02:53:31.448Z,97.52
2017-06-21T02:54:40.340Z,97.71
2017-06-21T02:55:49.556Z,97.33
2017-06-21T02:56:58.766Z,97.33
2017-06-21T02:58:07.980Z,97.9
2017-06-21T02:59:16.875Z,97.9
2017-06-21T03:00:25.768Z,98.57
2017-06-21T03:01:34.345Z,98.28
2017-06-21T03:02:42.922Z,98.19
2017-06-21T03:03:51.823Z,99.15
2017-06-21T03:05:01.034Z,99.15
2017-06-21T03:06:09.615Z,99.34
2017-06-21T03:07:18.196Z,99.05
2017-06-21T03:08:27.411Z,98.67
2017-06-21T03:09:35.996Z,98.28
2017-06-21T03:10:44.889Z,98.76
2017-06-21T03:11:53.782Z,99.05
2017-06-21T03:13:02.995Z,99.15
2017-06-21T03:14:12.528Z,99.91
2017-06-21T03:15:21.141Z,99.91
2017-06-21T03:16:30.409Z,99.99
2017-06-21T03:17:39.628Z,99.72
2017-06-21T03:18:48.575Z,99.72
2017-06-21T03:19:57.849Z,99.63
2017-06-21T03:21:06.866Z,99.99
2017-06-21T03:22:15.441Z,99.77
2017-06-21T03:23:24.018Z,99.87
2017-06-21T03:24:32.595Z,99.58
2017-06-21T03:25:42.118Z,99.34
2017-06-21T03:26:50.700Z,99.19
2017-06-21T03:27:59.280Z,99.19
2017-06-21T03:29:07.857Z,99.96
2017-06-21T03:30:16.751Z,99.99
2017-06-21T03:31:25.642Z,99.99
2017-06-21T03:32:34.221Z,99.99
2017-06-21T03:33:42.797Z,99.99
2017-06-21T03:34:51.379Z,99.99
2017-06-21T03:36:00.274Z,99.99
2017-06-21T03:37:09.486Z,99.99
2017-06-21T03:38:18.692Z,99.99
2017-06-21T03:39:27.268Z,99.99
2017-06-21T03:40:36.167Z,99.99
2017-06-21T03:41:45.380Z,99.99
2017-06-21T03:42:54.919Z,99.99
2017-06-21T03:44:04.128Z,99.99
2017-06-21T03:45:13.023Z,99.99
2017-06-21T03:46:22.626Z,99.99
2017-06-21T03:47:31.226Z,99.99
2017-06-21T03:48:39.803Z,99.99
2017-06-21T03:49:49.013Z,99.99
2017-06-21T03:50:57.905Z,99.99
2017-06-21T03:52:06.799Z,99.99
2017-06-21T03:53:15.482Z,99.99
2017-06-21T03:54:24.117Z,99.99
2017-06-21T03:55:33.017Z,99.99
2017-06-21T03:56:42.232Z,99.99
2017-06-21T03:57:50.913Z,99.87
2017-06-21T03:59:00.133Z,99.99
2017-06-21T04:00:08.727Z,99.82
2017-06-21T04:01:17.628Z,99.15
2017-06-21T04:02:26.525Z,99.91
2017-06-21T04:03:35.101Z,99.43
2017-06-21T04:04:43.677Z,99.99
2017-06-21T04:05:52.892Z,99.53
2017-06-21T04:07:02.415Z,99.99
2017-06-21T04:08:11.307Z,99.91
2017-06-21T04:09:19.887Z,99.91
2017-06-21T04:10:28.779Z,99.72
2017-06-21T04:11:38.307Z,99.63
2017-06-21T04:12:46.883Z,99.34
2017-06-21T04:13:55.462Z,99.05
2017-06-21T04:15:04.357Z,98.86
2017-06-21T04:16:13.253Z,98.57
2017-06-21T04:17:22.147Z,98.67
2017-06-21T04:18:31.039Z,98.57
2017-06-21T04:19:39.621Z,98.67
2017-06-21T04:20:48.204Z,98
2017-06-21T04:21:56.791Z,98.47
2017-06-21T04:23:05.687Z,98.47
2017-06-21T04:24:14.581Z,96.66
2017-06-21T04:25:23.156Z,96.99
2017-06-21T04:26:32.369Z,97.09
2017-06-21T04:27:40.952Z,96.37
2017-06-21T04:28:49.528Z,96.18
2017-06-21T04:29:58.116Z,96.03
2017-06-21T04:31:06.694Z,95.36
2017-06-21T04:32:15.588Z,96.13
2017-06-21T04:33:24.479Z,96.42
2017-06-21T04:34:33.370Z,97.18
2017-06-21T04:35:41.948Z,96.22
2017-06-21T04:36:51.161Z,96.56
2017-06-21T04:38:00.371Z,96.51
2017-06-21T04:39:09.264Z,96.13
2017-06-21T04:40:18.156Z,96.22
2017-06-21T04:41:27.369Z,96.03
2017-06-21T04:42:35.945Z,95.75
2017-06-21T04:43:44.840Z,96.22
2017-06-21T04:44:53.736Z,96.66
2017-06-21T04:46:02.662Z,97.61
2017-06-21T04:47:11.876Z,97.14
2017-06-21T04:48:21.407Z,97.09
2017-06-21T04:49:30.626Z,96.66
2017-06-21T04:50:39.836Z,96.94
2017-06-21T04:51:48.703Z,97.14
2017-06-21T04:52:57.300Z,97.42
2017-06-21T04:54:06.190Z,98.67
2017-06-21T04:55:14.764Z,98.67
2017-06-21T04:56:23.978Z,98.96
2017-06-21T04:57:32.873Z,99.91
2017-06-21T04:58:41.456Z,99.53
2017-06-21T04:59:50.666Z,99.72
2017-06-21T05:00:59.561Z,99.99
2017-06-21T05:02:08.179Z,99.91
2017-06-21T05:03:17.087Z,99.63
2017-06-21T05:04:25.985Z,99.24
2017-06-21T05:05:34.563Z,99.24
2017-06-21T05:06:43.456Z,98.38
2017-06-21T05:07:52.351Z,98.86
2017-06-21T05:09:01.561Z,98.28
2017-06-21T05:10:11.087Z,99.24
2017-06-21T05:11:20.297Z,98.57
2017-06-21T05:12:29.510Z,98.43
2017-06-21T05:13:38.401Z,97.95
2017-06-21T05:14:47.614Z,97.95
2017-06-21T05:15:56.518Z,96.99
2017-06-21T05:17:05.415Z,95.65
2017-06-21T05:18:14.313Z,95.51
2017-06-21T05:19:23.316Z,94.07
2017-06-21T05:20:32.209Z,93.97
2017-06-21T05:21:40.785Z,93.4
2017-06-21T05:22:49.363Z,93.06
2017-06-21T05:23:58.259Z,92.77
2017-06-21T05:25:06.834Z,90.95
2017-06-21T05:26:16.193Z,90.22
2017-06-21T05:27:25.615Z,89.07
2017-06-21T05:28:35.138Z,87.96
2017-06-21T05:29:44.672Z,87.34
2017-06-21T05:30:53.307Z,85.8
2017-06-21T05:32:02.207Z,85.07
2017-06-21T05:33:11.738Z,84.11
2017-06-21T05:34:20.636Z,83.58
2017-06-21T05:35:29.212Z,83.09
2017-06-21T05:36:38.129Z,82.46
2017-06-21T05:37:46.712Z,82.17
2017-06-21T05:38:55.607Z,82.37
2017-06-21T05:40:04.823Z,81.3
2017-06-21T05:41:13.402Z,80.48
2017-06-21T05:42:21.981Z,79.9
2017-06-21T05:43:30.880Z,79.36
2017-06-21T05:44:39.462Z,78.59
2017-06-21T05:45:48.368Z,78.4
2017-06-21T05:46:56.947Z,78.44
2017-06-21T05:48:05.530Z,77.86
2017-06-21T05:49:14.113Z,77.67
2017-06-21T05:50:22.695Z,77.58
2017-06-21T05:51:31.915Z,76.9
2017-06-21T05:52:40.811Z,76.75
2017-06-21T05:53:49.392Z,76.07
2017-06-21T05:54:59.063Z,75.1
2017-06-21T05:56:07.970Z,74.62
2017-06-21T05:57:16.871Z,75.24
2017-06-21T05:58:26.085Z,75.4
2017-06-21T05:59:34.678Z,74.66
2017-06-21T06:00:43.271Z,75.2
2017-06-21T06:01:52.176Z,75.88
2017-06-21T06:03:01.078Z,75.88
2017-06-21T06:04:09.983Z,76.07
2017-06-21T06:05:18.881Z,77.09
2017-06-21T06:06:28.142Z,77.58
2017-06-21T06:07:37.357Z,77.96
2017-06-21T06:08:45.940Z,77.86
2017-06-21T06:09:54.840Z,78.63
2017-06-21T06:11:03.742Z,78.63
2017-06-21T06:12:12.323Z,77.96
2017-06-21T06:13:21.695Z,78.15
2017-06-21T06:14:30.913Z,77.86
2017-06-21T06:15:39.814Z,77.96
2017-06-21T06:16:48.417Z,77.96
2017-06-21T06:17:57.632Z,78.83
2017-06-21T06:19:06.211Z,78.4
2017-06-21T06:20:15.427Z,78.79
2017-06-21T06:21:24.017Z,78.63
2017-06-21T06:22:32.605Z,78.98
2017-06-21T06:23:41.513Z,78.4
2017-06-21T06:24:50.411Z,78.5
2017-06-21T06:25:58.996Z,78.21
2017-06-21T06:27:07.579Z,79.31
2017-06-21T06:28:16.481Z,78.34
2017-06-21T06:29:25.384Z,78.54
2017-06-21T06:30:34.281Z,78.44
2017-06-21T06:31:43.813Z,78.44
2017-06-21T06:32:52.393Z,78.83
2017-06-21T06:34:01.611Z,79.5
2017-06-21T06:35:10.514Z,79.79
2017-06-21T06:36:19.101Z,78.98
2017-06-21T06:37:27.698Z,79.27
2017-06-21T06:38:36.280Z,79.46
2017-06-21T06:39:44.865Z,79.66
2017-06-21T06:40:54.081Z,79.36
2017-06-21T06:42:02.979Z,79.17
2017-06-21T06:43:11.564Z,79.27
2017-06-21T06:44:20.141Z,78.83
2017-06-21T06:45:29.037Z,78.69
2017-06-21T06:46:37.936Z,79.6
2017-06-21T06:47:46.832Z,79.31
2017-06-21T06:48:55.729Z,79.36
2017-06-21T06:50:04.310Z,79.94
2017-06-21T06:51:13.528Z,80.27
2017-06-21T06:52:22.430Z,79.98
2017-06-21T06:53:31.340Z,78.92
2017-06-21T06:54:39.919Z,79.21
2017-06-21T06:55:48.508Z,79.21
2017-06-21T06:56:57.409Z,79.79
2017-06-21T06:58:06.306Z,79.25
2017-06-21T06:59:15.201Z,79.16
2017-06-21T07:00:24.426Z,78.09
2017-06-21T07:01:33.007Z,78
2017-06-21T07:02:41.903Z,78.48
2017-06-21T07:03:50.491Z,78.77
2017-06-21T07:04:59.388Z,77.9
2017-06-21T07:06:08.602Z,78.48
2017-06-21T07:07:17.507Z,77.71
2017-06-21T07:08:26.097Z,77.71
2017-06-21T07:09:34.994Z,78.67
2017-06-21T07:10:43.583Z,79.06
2017-06-21T07:11:52.774Z,78.77
2017-06-21T07:13:02.335Z,78.77
2017-06-21T07:14:11.241Z,78.91
2017-06-21T07:15:19.868Z,78.42
2017-06-21T07:16:28.772Z,78.58
2017-06-21T07:17:37.357Z,78.67
2017-06-21T07:18:46.258Z,78.58
2017-06-21T07:19:55.477Z,79.16
2017-06-21T07:21:04.375Z,78.77
2017-06-21T07:22:12.954Z,78.61
2017-06-21T07:23:21.535Z,78.33
2017-06-21T07:24:30.436Z,78.91
2017-06-21T07:25:39.332Z,78.13
2017-06-21T07:26:48.230Z,78.52
2017-06-21T07:27:57.130Z,77.94
2017-06-21T07:29:05.709Z,78.52
2017-06-21T07:30:14.606Z,77.84
2017-06-21T07:31:23.507Z,77.94
2017-06-21T07:32:32.805Z,77.94
2017-06-21T07:33:41.709Z,77.65
2017-06-21T07:34:50.926Z,77.55
2017-06-21T07:35:59.507Z,77.07
2017-06-21T07:37:08.086Z,78.52
2017-06-21T07:38:16.676Z,77.75
2017-06-21T07:39:25.256Z,78.03
2017-06-21T07:40:34.166Z,78.13
2017-06-21T07:41:43.067Z,78.13
2017-06-21T07:42:52.287Z,77.78
2017-06-21T07:44:00.869Z,78.08
2017-06-21T07:45:09.763Z,78.56
2017-06-21T07:46:18.673Z,78.08
2017-06-21T07:47:28.209Z,78.03
2017-06-21T07:48:37.133Z,78.66
2017-06-21T07:49:45.720Z,77.78
2017-06-21T07:50:54.618Z,77.88
2017-06-21T07:52:03.201Z,78.36
2017-06-21T07:53:11.785Z,78.75
2017-06-21T07:54:20.686Z,77.88
2017-06-21T07:55:29.900Z,77.88
2017-06-21T07:56:38.798Z,77.78
2017-06-21T07:57:47.700Z,78.08
2017-06-21T07:58:56.916Z,78.17
2017-06-21T08:00:05.502Z,78.08
2017-06-21T08:01:14.404Z,79.52
2017-06-21T08:02:23.619Z,80.05
2017-06-21T08:03:32.834Z,78.66
2017-06-21T08:04:41.418Z,78.11
2017-06-21T08:05:50.316Z,78.59
2017-06-21T08:06:58.900Z,78.79
2017-06-21T08:08:08.444Z,78.41
2017-06-21T08:09:18.969Z,77.92
2017-06-21T08:10:27.866Z,78.11
2017-06-21T08:11:37.086Z,79.17
2017-06-21T08:12:45.771Z,78.11
2017-06-21T08:13:54.999Z,77.73
2017-06-21T08:15:04.366Z,78.06
2017-06-21T08:16:13.585Z,77.96
2017-06-21T08:17:22.483Z,77.67
2017-06-21T08:18:31.400Z,76.9
2017-06-21T08:19:40.015Z,77.38
2017-06-21T08:20:48.598Z,77.67
2017-06-21T08:21:57.178Z,78.54
2017-06-21T08:23:06.081Z,77.86
2017-06-21T08:24:14.668Z,78.64
2017-06-21T08:25:23.889Z,77.96
2017-06-21T08:26:32.473Z,77.67
2017-06-21T08:27:41.690Z,77
2017-06-21T08:28:50.276Z,76.51
2017-06-21T08:29:58.862Z,76.8
2017-06-21T08:31:08.082Z,77.48
2017-06-21T08:32:17.302Z,77.67
2017-06-21T08:33:26.220Z,77.42
2017-06-21T08:34:35.774Z,76.74
2017-06-21T08:35:45.001Z,77.13
2017-06-21T08:36:53.907Z,76.93
2017-06-21T08:38:02.804Z,76.74
2017-06-21T08:39:12.018Z,76.74
2017-06-21T08:40:20.915Z,76.93
2017-06-21T08:41:29.809Z,76.45
2017-06-21T08:42:38.388Z,76.06
2017-06-21T08:43:46.968Z,76.35
2017-06-21T08:44:55.550Z,76.29
2017-06-21T08:46:04.767Z,75.62
2017-06-21T08:47:13.673Z,75.91
2017-06-21T08:48:24.330Z,75.43
